Time;durP1;ratioP1;P1;durP2;ratioP2;P2;SDS_P1;SDS_P2;PMS_P1;PMS_P2;Temp;Humidity;BMP_temperature;BMP_pressure;BME280_temperature;BME280_humidity;BME280_pressure;Samples;Min_cycle;Max_cycle;Signal;HPM_P1;HPM_P2
2022/08/07 00:00:30;;;;;;;14.90;9.95;;;14.10;99.90;;;;;;5072518;28;20041;-60
2022/08/07 00:02:56;;;;;;;15.10;9.80;;;14.10;99.90;;;;;;5071437;28;20044;-60
2022/08/07 00:05:23;;;;;;;13.20;10.00;;;14.00;99.90;;;;;;5072732;28;20119;-60
2022/08/07 00:07:48;;;;;;;13.82;10.13;;;14.00;99.90;;;;;;5072367;28;20040;-59
2022/08/07 00:10:14;;;;;;;14.32;9.52;;;14.00;99.90;;;;;;5072646;28;20089;-60
2022/08/07 00:12:42;;;;;;;13.85;9.82;;;14.00;99.90;;;;;;5072359;28;20127;-60
2022/08/07 00:15:08;;;;;;;14.63;9.90;;;13.90;99.90;;;;;;5072328;28;20388;-61
2022/08/07 00:17:34;;;;;;;14.15;9.15;;;13.90;99.90;;;;;;5072368;28;20068;-60
2022/08/07 00:20:00;;;;;;;14.05;9.73;;;13.90;99.90;;;;;;5062532;28;20080;-60
2022/08/07 00:22:26;;;;;;;13.65;9.68;;;13.90;99.90;;;;;;5052165;28;20036;-60
2022/08/07 00:24:51;;;;;;;12.60;9.15;;;13.80;99.90;;;;;;5052041;28;20489;-59
2022/08/07 00:27:17;;;;;;;14.20;10.38;;;13.80;99.90;;;;;;5052219;28;20041;-60
2022/08/07 00:29:43;;;;;;;13.95;9.90;;;13.80;99.90;;;;;;5052220;28;20045;-60
2022/08/07 00:32:10;;;;;;;15.13;9.55;;;13.80;99.90;;;;;;5067362;28;20036;-60
2022/08/07 00:34:36;;;;;;;13.70;9.15;;;13.70;99.90;;;;;;5052008;28;20045;-59
2022/08/07 00:37:02;;;;;;;12.68;9.45;;;13.70;99.90;;;;;;5051716;28;20446;-60
2022/08/07 00:39:28;;;;;;;15.90;9.30;;;13.70;99.90;;;;;;5071126;28;20048;-60
2022/08/07 00:41:59;;;;;;;14.18;8.93;;;13.90;99.90;;;;;;5072012;28;20037;-59
2022/08/07 00:44:25;;;;;;;13.57;9.13;;;13.70;99.90;;;;;;5076087;28;20479;-60
2022/08/07 00:46:51;;;;;;;12.50;9.00;;;13.70;99.90;;;;;;5076008;28;20131;-59
2022/08/07 00:49:17;;;;;;;12.80;8.73;;;13.60;99.90;;;;;;5075909;28;20075;-61
2022/08/07 00:51:42;;;;;;;12.35;8.52;;;13.60;99.90;;;;;;5074651;28;20064;-60
2022/08/07 00:54:08;;;;;;;12.85;9.07;;;13.60;99.90;;;;;;5075964;28;20514;-60
2022/08/07 00:56:34;;;;;;;12.63;8.75;;;13.50;99.90;;;;;;5075912;28;20041;-59
2022/08/07 00:59:01;;;;;;;13.13;8.82;;;13.50;99.90;;;;;;5075928;28;20040;-60
2022/08/07 01:01:27;;;;;;;13.35;9.27;;;13.50;99.90;;;;;;5075977;28;20041;-60
2022/08/07 01:03:53;;;;;;;14.05;9.63;;;13.50;99.90;;;;;;5075841;28;20452;-60
2022/08/07 01:06:19;;;;;;;12.07;8.50;;;13.50;99.90;;;;;;5075603;28;20051;-60
2022/08/07 01:08:46;;;;;;;12.07;8.43;;;13.60;99.90;;;;;;5075740;28;20052;-60
2022/08/07 01:11:13;;;;;;;13.25;8.60;;;13.50;99.90;;;;;;5075421;28;20072;-60
2022/08/07 01:13:39;;;;;;;11.52;7.93;;;13.50;99.90;;;;;;5074421;28;20361;-60
2022/08/07 01:16:06;;;;;;;12.77;8.85;;;13.40;99.90;;;;;;5075417;28;20074;-61
2022/08/07 01:18:33;;;;;;;11.82;8.02;;;13.50;99.90;;;;;;5075481;28;20044;-60
2022/08/07 01:21:11;;;;;;;12.98;7.50;;;13.50;99.90;;;;;;5057435;28;20075;-61
2022/08/07 01:23:38;;;;;;;12.43;8.40;;;13.40;99.90;;;;;;5055521;28;20064;-60
2022/08/07 01:26:04;;;;;;;13.07;8.27;;;13.30;99.90;;;;;;5055302;28;20037;-60
2022/08/07 01:28:30;;;;;;;13.18;8.70;;;13.30;99.90;;;;;;5055284;28;20174;-60
2022/08/07 01:30:57;;;;;;;11.90;7.80;;;13.40;99.90;;;;;;5055274;28;20398;-60
2022/08/07 01:33:23;;;;;;;13.27;8.20;;;13.40;99.90;;;;;;5055200;28;20036;-60
2022/08/07 01:35:49;;;;;;;11.23;7.95;;;13.20;99.90;;;;;;5055154;28;20087;-60
2022/08/07 01:38:16;;;;;;;13.82;8.52;;;13.30;99.90;;;;;;5064288;28;20037;-59
2022/08/07 01:40:44;;;;;;;11.38;7.88;;;13.30;99.90;;;;;;5075202;28;20041;-60
2022/08/07 01:43:10;;;;;;;12.43;8.88;;;13.30;99.90;;;;;;5074974;28;20036;-60
2022/08/07 01:45:36;;;;;;;12.90;8.82;;;13.30;99.90;;;;;;5075005;28;20056;-59
2022/08/07 01:48:03;;;;;;;12.98;8.90;;;13.30;99.90;;;;;;5073515;28;20504;-60
2022/08/07 01:50:30;;;;;;;13.65;8.60;;;13.30;99.90;;;;;;5074783;28;20029;-60
2022/08/07 01:52:57;;;;;;;13.63;9.18;;;13.30;99.90;;;;;;5074753;28;20040;-60
2022/08/07 01:55:34;;;;;;;12.40;8.15;;;13.30;99.90;;;;;;5072356;28;20377;-60
2022/08/07 01:58:03;;;;;;;12.95;8.70;;;13.30;99.90;;;;;;5074680;28;20055;-60
2022/08/07 02:00:30;;;;;;;12.88;8.32;;;13.30;99.90;;;;;;5074679;28;20409;-61
2022/08/07 02:03:01;;;;;;;12.63;8.95;;;13.30;99.90;;;;;;5074675;28;20041;-60
2022/08/07 02:05:35;;;;;;;13.00;8.63;;;13.30;99.90;;;;;;5074814;28;20397;-60
2022/08/07 02:08:06;;;;;;;13.00;8.30;;;13.30;99.90;;;;;;5074643;28;20519;-60
2022/08/07 02:10:33;;;;;;;12.43;9.07;;;13.30;99.90;;;;;;5074564;28;20488;-60
2022/08/07 02:13:00;;;;;;;12.73;8.43;;;13.30;99.90;;;;;;5074420;28;20047;-59
2022/08/07 02:15:27;;;;;;;14.50;9.43;;;13.20;99.90;;;;;;5074319;28;20477;-60
2022/08/07 02:17:54;;;;;;;12.48;8.20;;;13.20;99.90;;;;;;5074508;28;20040;-59
2022/08/07 02:20:22;;;;;;;13.75;9.15;;;13.10;99.90;;;;;;5061849;28;20052;-60
2022/08/07 02:22:51;;;;;;;12.52;8.77;;;13.10;99.90;;;;;;5054158;28;20056;-60
2022/08/07 02:25:18;;;;;;;12.20;8.07;;;13.20;99.90;;;;;;5054114;28;20056;-59
2022/08/07 02:27:46;;;;;;;12.27;8.20;;;13.20;99.90;;;;;;5054078;28;20083;-60
2022/08/07 02:30:12;;;;;;;12.70;8.18;;;13.10;99.90;;;;;;5054271;28;20037;-59
2022/08/07 02:32:38;;;;;;;15.70;9.90;;;13.00;99.90;;;;;;5054169;28;20448;-60
2022/08/07 02:35:07;;;;;;;15.02;9.30;;;12.90;99.90;;;;;;5054221;28;20037;-60
2022/08/07 02:37:36;;;;;;;14.35;8.88;;;12.90;99.90;;;;;;5072739;28;20071;-60
2022/08/07 02:40:03;;;;;;;12.18;8.18;;;12.90;99.90;;;;;;5074087;28;20116;-60
2022/08/07 02:42:33;;;;;;;12.65;8.75;;;12.90;99.90;;;;;;5073067;28;20098;-60
2022/08/07 02:45:01;;;;;;;13.18;9.30;;;12.90;99.90;;;;;;5074158;28;20048;-60
2022/08/07 02:47:27;;;;;;;12.55;8.40;;;13.00;99.90;;;;;;5074016;28;20044;-59
2022/08/07 02:49:53;;;;;;;13.60;8.32;;;12.90;99.90;;;;;;5073911;28;20120;-59
2022/08/07 02:52:33;;;;;;;13.68;8.98;;;12.90;99.90;;;;;;5073717;28;20107;-58
2022/08/07 02:55:09;;;;;;;12.00;8.20;;;12.90;99.90;;;;;;5073705;28;20098;-59
2022/08/07 02:57:36;;;;;;;13.48;8.10;;;12.80;99.90;;;;;;5074028;28;20107;-60
2022/08/07 03:00:05;;;;;;;11.82;7.97;;;12.80;99.90;;;;;;5073840;28;20036;-60
2022/08/07 03:02:32;;;;;;;13.13;9.30;;;12.80;99.90;;;;;;5073670;28;20512;-60
2022/08/07 03:05:00;;;;;;;13.38;8.90;;;12.80;99.90;;;;;;5073521;28;20044;-60
2022/08/07 03:07:26;;;;;;;11.73;8.57;;;12.70;99.90;;;;;;5073380;28;20063;-59
2022/08/07 03:09:53;;;;;;;13.02;7.97;;;12.70;99.90;;;;;;5073733;28;20043;-61
2022/08/07 03:12:19;;;;;;;13.60;8.10;;;12.70;99.90;;;;;;5073591;28;20032;-60
2022/08/07 03:14:45;;;;;;;15.30;8.60;;;12.70;99.90;;;;;;5073542;28;20158;-60
2022/08/07 03:17:11;;;;;;;13.27;8.68;;;12.80;99.90;;;;;;5073346;28;20127;-60
2022/08/07 03:19:37;;;;;;;12.60;8.32;;;12.70;99.90;;;;;;5066643;28;20139;-60
2022/08/07 03:22:05;;;;;;;10.32;6.80;;;12.70;99.90;;;;;;5053461;28;20073;-60
2022/08/07 03:24:32;;;;;;;12.43;7.82;;;12.70;99.90;;;;;;5053174;28;20105;-60
2022/08/07 03:27:02;;;;;;;13.93;8.32;;;12.60;99.90;;;;;;5053173;28;20045;-59
2022/08/07 03:29:39;;;;;;;12.43;8.35;;;12.60;99.90;;;;;;5053114;28;20053;-60
2022/08/07 03:32:08;;;;;;;11.63;8.23;;;12.60;99.90;;;;;;5053099;28;20037;-60
2022/08/07 03:34:36;;;;;;;11.35;8.00;;;12.60;99.90;;;;;;5051859;28;20037;-60
2022/08/07 03:37:03;;;;;;;14.43;8.07;;;12.60;99.90;;;;;;5053001;28;20193;-60
2022/08/07 03:39:33;;;;;;;12.80;8.20;;;12.50;99.90;;;;;;5072345;28;20118;-60
2022/08/07 03:41:59;;;;;;;13.82;8.13;;;12.60;99.90;;;;;;5072901;28;20123;-60
2022/08/07 03:44:26;;;;;;;13.00;8.85;;;12.60;99.90;;;;;;5072866;28;20373;-59
2022/08/07 03:46:52;;;;;;;12.95;8.48;;;12.50;99.90;;;;;;5072731;28;20041;-60
2022/08/07 03:49:18;;;;;;;13.15;8.55;;;12.50;99.90;;;;;;5072976;28;20090;-59
2022/08/07 03:51:45;;;;;;;11.57;8.27;;;12.60;99.90;;;;;;5071690;28;20128;-60
2022/08/07 03:54:11;;;;;;;13.68;8.15;;;12.60;99.90;;;;;;5072915;28;20036;-60
2022/08/07 03:56:38;;;;;;;12.30;8.25;;;12.60;99.90;;;;;;5072592;28;20079;-60
2022/08/07 03:59:05;;;;;;;12.18;8.30;;;12.60;99.90;;;;;;5072548;28;20082;-60
2022/08/07 04:01:32;;;;;;;12.65;8.70;;;12.60;99.90;;;;;;5072498;28;20048;-59
2022/08/07 04:03:58;;;;;;;12.95;7.55;;;12.60;99.90;;;;;;5072674;28;20067;-60
2022/08/07 04:06:25;;;;;;;13.40;9.02;;;12.60;99.90;;;;;;5072571;28;20066;-60
2022/08/07 04:08:51;;;;;;;13.10;8.77;;;12.60;99.90;;;;;;5072457;28;20051;-60
2022/08/07 04:11:17;;;;;;;16.20;10.40;;;12.60;99.90;;;;;;5072379;28;20079;-60
2022/08/07 04:13:45;;;;;;;10.95;7.65;;;12.60;99.90;;;;;;5072449;28;20071;-60
2022/08/07 04:16:12;;;;;;;13.73;8.60;;;12.60;99.90;;;;;;5072557;28;20044;-59
2022/08/07 04:18:37;;;;;;;12.32;8.13;;;12.60;99.90;;;;;;5072083;28;20409;-60
2022/08/07 04:21:03;;;;;;;15.52;9.07;;;12.60;99.90;;;;;;5053732;28;20044;-60
2022/08/07 04:23:32;;;;;;;12.43;8.02;;;12.60;99.90;;;;;;5052211;28;20063;-60
2022/08/07 04:25:58;;;;;;;12.98;7.30;;;12.70;99.90;;;;;;5052254;28;20048;-60
2022/08/07 04:28:23;;;;;;;14.75;8.82;;;12.70;99.90;;;;;;5052175;28;20040;-60
2022/08/07 04:30:50;;;;;;;13.05;8.18;;;12.60;99.90;;;;;;5052368;28;20041;-60
2022/08/07 04:33:17;;;;;;;14.00;8.57;;;12.70;99.90;;;;;;5052332;28;20033;-60
2022/08/07 04:35:46;;;;;;;12.52;8.48;;;12.80;99.90;;;;;;5052287;28;20393;-60
2022/08/07 04:38:13;;;;;;;14.20;8.65;;;12.80;99.90;;;;;;5060862;28;20075;-60
2022/08/07 04:40:40;;;;;;;12.23;8.18;;;12.90;99.90;;;;;;5072219;28;20124;-60
2022/08/07 04:43:06;;;;;;;14.68;9.35;;;12.90;99.90;;;;;;5071967;28;20036;-60
2022/08/07 04:45:57;;;;;;;13.52;8.10;;;12.90;99.90;;;;;;5072287;28;20055;-53
2022/08/07 04:48:31;;;;;;;12.27;8.18;;;12.90;99.90;;;;;;5072243;28;20052;-48
2022/08/07 04:51:04;;;;;;;14.18;8.25;;;12.90;99.90;;;;;;5071784;28;20040;-47
2022/08/07 04:53:51;;;;;;;12.95;8.00;;;13.00;99.90;;;;;;5071474;28;20048;-49
2022/08/07 04:56:58;;;;;;;14.07;8.48;;;13.00;99.90;;;;;;5072040;28;20427;-47
2022/08/07 04:59:38;;;;;;;13.80;7.93;;;13.10;99.90;;;;;;5071599;28;20071;-50
2022/08/07 05:02:17;;;;;;;11.05;7.45;;;13.10;99.90;;;;;;5071863;28;20497;-47
2022/08/07 05:05:22;;;;;;;11.48;7.53;;;13.20;99.90;;;;;;5071937;28;20389;-51
2022/08/07 05:07:59;;;;;;;12.90;8.18;;;13.30;99.90;;;;;;5071189;28;20048;-49
2022/08/07 05:10:46;;;;;;;12.32;7.50;;;13.40;99.90;;;;;;5071624;28;20055;-47
2022/08/07 05:13:27;;;;;;;11.35;7.53;;;13.50;99.90;;;;;;5071716;28;20110;-47
2022/08/07 05:15:53;;;;;;;10.47;6.37;;;13.50;99.90;;;;;;5071592;28;20119;-48
2022/08/07 05:18:31;;;;;;;13.10;7.68;;;13.60;99.90;;;;;;5071477;28;20036;-52
2022/08/07 05:20:59;;;;;;;12.55;7.47;;;13.80;99.90;;;;;;5054189;28;20117;-49
2022/08/07 05:23:35;;;;;;;12.75;7.70;;;13.90;99.90;;;;;;5051652;28;20044;-50
2022/08/07 05:26:04;;;;;;;13.70;8.05;;;13.90;99.90;;;;;;5051382;28;20531;-49
2022/08/07 05:28:32;;;;;;;12.23;7.53;;;14.00;99.90;;;;;;5052159;28;20544;-51
2022/08/07 05:30:59;;;;;;;12.20;7.88;;;14.00;99.90;;;;;;5055162;28;20052;-47
2022/08/07 05:33:27;;;;;;;11.80;6.47;;;14.10;99.90;;;;;;5055300;28;20072;-47
2022/08/07 05:35:54;;;;;;;10.80;6.30;;;14.20;99.90;;;;;;5070681;28;20044;-48
2022/08/07 05:38:21;;;;;;;11.45;6.68;;;14.30;99.90;;;;;;5063599;28;20396;-52
2022/08/07 05:40:47;;;;;;;13.27;7.05;;;14.30;99.90;;;;;;5074867;28;20040;-48
2022/08/07 05:43:13;;;;;;;11.55;7.30;;;14.40;99.90;;;;;;5074884;28;20048;-48
2022/08/07 05:45:41;;;;;;;11.93;7.63;;;14.40;99.90;;;;;;5073705;28;20032;-47
2022/08/07 05:48:08;;;;;;;10.23;6.22;;;14.50;99.90;;;;;;5074261;28;20045;-48
2022/08/07 05:50:35;;;;;;;12.82;6.35;;;14.60;99.90;;;;;;5074066;28;20098;-47
2022/08/07 05:53:02;;;;;;;9.88;6.20;;;14.70;99.90;;;;;;5074106;28;20079;-47
2022/08/07 05:55:29;;;;;;;8.90;5.22;;;14.70;99.90;;;;;;5073896;28;20442;-47
2022/08/07 05:57:56;;;;;;;12.45;6.40;;;14.90;99.90;;;;;;5073685;28;20094;-47
2022/08/07 06:00:23;;;;;;;11.30;6.22;;;14.90;99.90;;;;;;5074099;28;20051;-48
2022/08/07 06:02:52;;;;;;;10.48;5.47;;;15.00;99.90;;;;;;5074038;28;20143;-49
2022/08/07 06:05:20;;;;;;;9.98;5.75;;;15.10;99.90;;;;;;5073557;28;20110;-49
2022/08/07 06:07:47;;;;;;;9.27;5.47;;;15.20;99.90;;;;;;5073449;28;20056;-47
2022/08/07 06:10:13;;;;;;;8.57;4.90;;;15.20;99.90;;;;;;5073424;28;20062;-48
2022/08/07 06:12:39;;;;;;;13.32;6.50;;;15.30;99.90;;;;;;5073465;28;20778;-50
2022/08/07 06:15:07;;;;;;;10.65;6.90;;;15.40;99.90;;;;;;5048259;28;20069;-48
2022/08/07 06:17:33;;;;;;;8.25;4.97;;;15.50;99.90;;;;;;5039611;28;20033;-50
2022/08/07 06:20:00;;;;;;;10.90;5.63;;;15.60;99.90;;;;;;5058721;28;20037;-49
2022/08/07 06:22:27;;;;;;;11.85;7.05;;;15.60;99.90;;;;;;5053757;28;20136;-51
2022/08/07 06:24:56;;;;;;;12.00;6.40;;;15.70;99.90;;;;;;5053493;28;20223;-60
2022/08/07 06:27:22;;;;;;;9.43;6.13;;;15.80;99.90;;;;;;5068326;28;20559;-60
2022/08/07 06:29:49;;;;;;;9.32;6.05;;;15.90;99.90;;;;;;5053472;28;20041;-61
2022/08/07 06:32:15;;;;;;;10.60;6.25;;;16.00;99.90;;;;;;5053335;28;20091;-60
2022/08/07 06:34:40;;;;;;;11.10;5.90;;;16.10;99.90;;;;;;5068754;28;20045;-60
2022/08/07 06:37:06;;;;;;;11.48;5.65;;;16.20;99.90;;;;;;5053156;28;20059;-60
2022/08/07 06:39:31;;;;;;;10.00;6.20;;;16.20;99.90;;;;;;5072839;28;20056;-60
2022/08/07 06:42:05;;;;;;;10.73;5.70;;;16.30;99.90;;;;;;5072402;28;20099;-58
2022/08/07 06:44:32;;;;;;;10.63;6.20;;;16.40;99.90;;;;;;5073076;28;20071;-62
2022/08/07 06:46:58;;;;;;;9.10;5.80;;;16.50;99.90;;;;;;5072543;28;20544;-62
2022/08/07 06:49:24;;;;;;;10.90;5.93;;;16.60;99.90;;;;;;5072910;28;20032;-60
2022/08/07 06:51:51;;;;;;;9.23;5.43;;;16.60;99.90;;;;;;5070716;28;20051;-61
2022/08/07 06:54:18;;;;;;;9.95;5.63;;;16.70;99.90;;;;;;5072238;28;20048;-61
2022/08/07 06:56:49;;;;;;;10.30;5.13;;;16.70;99.90;;;;;;5072934;28;20460;-60
2022/08/07 06:59:36;;;;;;;8.73;5.03;;;16.70;99.90;;;;;;5072740;28;20050;-60
2022/08/07 07:02:04;;;;;;;9.25;5.45;;;16.80;99.90;;;;;;5072782;28;20047;-60
2022/08/07 07:04:30;;;;;;;9.55;4.65;;;16.80;99.90;;;;;;5072745;28;20481;-60
2022/08/07 07:06:57;;;;;;;9.60;4.97;;;16.90;99.90;;;;;;5072345;28;20045;-60
2022/08/07 07:09:28;;;;;;;7.07;4.22;;;17.00;99.90;;;;;;5072556;28;20044;-60
2022/08/07 07:12:06;;;;;;;7.90;3.97;;;17.00;99.90;;;;;;5072772;28;20105;-60
2022/08/07 07:14:38;;;;;;;8.55;4.32;;;17.10;99.90;;;;;;5072660;28;20329;-60
2022/08/07 07:17:12;;;;;;;7.70;4.40;;;17.20;99.90;;;;;;5072265;28;20094;-60
2022/08/07 07:19:46;;;;;;;7.85;3.70;;;17.30;99.90;;;;;;5065456;28;20040;-59
2022/08/07 07:22:13;;;;;;;6.72;3.38;;;17.50;99.90;;;;;;5050938;28;20053;-60
2022/08/07 07:24:40;;;;;;;9.48;4.75;;;17.30;99.90;;;;;;5050911;28;20052;-60
2022/08/07 07:27:08;;;;;;;8.00;3.78;;;17.40;99.90;;;;;;5052321;28;20052;-60
2022/08/07 07:29:38;;;;;;;7.03;3.83;;;17.30;99.90;;;;;;5052204;28;20115;-60
2022/08/07 07:32:07;;;;;;;8.85;4.15;;;17.50;99.90;;;;;;5042604;28;20040;-60
2022/08/07 07:34:35;;;;;;;8.43;4.28;;;17.60;99.90;;;;;;5042725;28;20044;-60
2022/08/07 07:37:03;;;;;;;8.98;4.88;;;17.60;99.90;;;;;;5041734;28;20119;-60
2022/08/07 07:39:31;;;;;;;9.10;4.47;;;17.60;99.90;;;;;;5048442;28;20047;-60
2022/08/07 07:42:00;;;;;;;8.65;5.00;;;17.70;99.90;;;;;;5051765;28;20832;-60
2022/08/07 07:44:27;;;;;;;8.40;4.82;;;17.80;99.90;;;;;;5052107;28;20044;-60
2022/08/07 07:46:55;;;;;;;7.82;4.90;;;17.90;99.90;;;;;;5051964;28;20456;-60
2022/08/07 07:49:24;;;;;;;10.88;6.05;;;18.00;99.90;;;;;;5049206;28;20033;-60
2022/08/07 07:51:51;;;;;;;8.23;4.53;;;18.10;99.90;;;;;;5040832;28;20083;-60
2022/08/07 07:54:18;;;;;;;10.10;5.53;;;18.00;99.90;;;;;;5041897;28;20052;-60
2022/08/07 07:56:46;;;;;;;8.27;5.25;;;18.10;99.90;;;;;;5044088;28;20055;-60
2022/08/07 07:59:13;;;;;;;9.13;5.68;;;18.10;99.90;;;;;;5040936;28;20409;-60
2022/08/07 08:01:43;;;;;;;8.95;5.10;;;17.80;99.90;;;;;;5041069;28;20120;-60
2022/08/07 08:04:11;;;;;;;7.68;5.07;;;18.00;99.90;;;;;;5037339;28;20121;-61
2022/08/07 08:06:40;;;;;;;8.25;5.18;;;18.10;99.90;;;;;;5030183;28;20474;-61
2022/08/07 08:09:07;;;;;;;9.45;5.10;;;18.10;99.90;;;;;;5031877;28;20037;-61
2022/08/07 08:11:34;;;;;;;10.10;5.28;;;18.30;99.90;;;;;;5031635;28;20092;-61
2022/08/07 08:14:00;;;;;;;10.90;5.65;;;18.30;99.90;;;;;;5031891;28;20157;-61
2022/08/07 08:16:37;;;;;;;11.18;5.07;;;18.50;99.90;;;;;;5031629;28;20045;-61
2022/08/07 08:19:05;;;;;;;7.95;5.22;;;18.40;99.90;;;;;;5033528;28;20045;-61
2022/08/07 08:27:10;;;;;;;9.07;5.28;;;18.30;99.90;;;;;;5051416;28;20581;-61
2022/08/07 08:29:49;;;;;;;10.00;5.10;;;18.30;99.90;;;;;;5051432;28;20397;-60
2022/08/07 08:32:17;;;;;;;9.52;5.05;;;18.60;99.90;;;;;;5051334;28;20041;-60
2022/08/07 08:34:45;;;;;;;9.95;5.13;;;18.80;99.90;;;;;;5051472;28;20382;-60
2022/08/07 08:37:12;;;;;;;8.88;5.15;;;18.70;99.90;;;;;;5051216;28;20405;-60
2022/08/07 08:39:41;;;;;;;7.72;4.28;;;18.80;99.90;;;;;;5071358;28;20101;-60
2022/08/07 08:42:18;;;;;;;9.02;4.90;;;18.90;99.90;;;;;;5069757;28;20458;-60
2022/08/07 08:45:02;;;;;;;10.10;4.85;;;18.80;99.90;;;;;;5071217;28;20043;-59
2022/08/07 08:47:57;;;;;;;14.30;5.60;;;18.90;99.90;;;;;;5070054;28;20048;-61
2022/08/07 08:50:29;;;;;;;7.93;4.38;;;18.80;99.90;;;;;;5058956;28;20048;-60
2022/08/07 08:53:08;;;;;;;9.55;4.88;;;18.80;99.90;;;;;;5066432;28;20041;-61
2022/08/07 08:55:40;;;;;;;7.57;4.88;;;19.10;99.90;;;;;;5051089;28;20355;-60
2022/08/07 08:58:35;;;;;;;8.70;4.70;;;19.20;99.90;;;;;;5043432;28;20053;-61
2022/08/07 09:01:33;;;;;;;8.73;4.57;;;19.30;99.90;;;;;;5043729;28;20113;-61
2022/08/07 09:04:12;;;;;;;9.70;4.43;;;19.40;99.90;;;;;;5023233;28;20045;-61
2022/08/07 09:06:37;;;;;;;9.80;4.38;;;19.60;99.90;;;;;;5045768;28;20389;-62
2022/08/07 09:09:16;;;;;;;7.78;4.28;;;19.90;99.90;;;;;;5035074;28;20049;-62
2022/08/07 09:11:54;;;;;;;9.02;4.53;;;19.90;99.90;;;;;;5035038;28;20049;-62
2022/08/07 09:14:30;;;;;;;7.68;4.40;;;20.00;99.90;;;;;;5035176;28;20068;-62
2022/08/07 09:17:08;;;;;;;7.80;3.92;;;19.80;99.90;;;;;;5034989;28;20401;-62
2022/08/07 09:19:39;;;;;;;10.05;4.03;;;19.50;99.90;;;;;;5041598;28;20045;-62
2022/08/07 09:22:26;;;;;;;8.07;4.65;;;19.10;99.90;;;;;;5054619;28;20516;-62
2022/08/07 09:25:15;;;;;;;8.27;4.00;;;19.20;99.90;;;;;;5052748;28;20501;-62
2022/08/07 09:28:05;;;;;;;7.70;4.18;;;19.10;99.90;;;;;;5041053;28;20481;-62
2022/08/07 09:30:42;;;;;;;8.07;4.35;;;19.40;99.90;;;;;;5034430;28;20093;-62
2022/08/07 09:33:23;;;;;;;8.38;3.80;;;19.60;99.90;;;;;;5034423;28;20572;-62
2022/08/07 09:36:03;;;;;;;9.43;4.50;;;19.90;99.90;;;;;;5034118;28;20143;-61
2022/08/07 09:38:49;;;;;;;7.32;4.10;;;20.00;99.90;;;;;;5056268;28;20480;-62
2022/08/07 09:41:37;;;;;;;7.38;3.75;;;19.80;99.90;;;;;;5073845;28;20477;-62
2022/08/07 09:44:13;;;;;;;7.68;4.30;;;19.70;99.90;;;;;;5074016;28;20036;-62
2022/08/07 09:46:54;;;;;;;8.05;4.10;;;19.70;99.90;;;;;;5074100;28;20040;-62
2022/08/07 09:49:35;;;;;;;9.18;3.97;;;19.60;99.90;;;;;;5073974;28;20052;-62
2022/08/07 09:52:22;;;;;;;7.22;4.00;;;19.40;99.90;;;;;;5074133;28;20477;-62
2022/08/07 09:54:57;;;;;;;7.05;4.20;;;19.40;99.90;;;;;;5072630;28;20047;-61
2022/08/07 09:57:51;;;;;;;7.97;3.63;;;19.50;99.90;;;;;;5074101;28;20048;-62
2022/08/07 10:00:20;;;;;;;6.72;3.35;;;19.20;99.90;;;;;;5074143;28;20105;-61
2022/08/07 10:03:23;;;;;;;8.13;3.60;;;19.20;99.90;;;;;;5073796;28;20045;-62
2022/08/07 10:06:34;;;;;;;7.53;3.70;;;19.30;99.90;;;;;;5073124;28;20044;-61
2022/08/07 10:09:40;;;;;;;7.85;3.33;;;19.60;99.90;;;;;;5033391;28;20107;-61
2022/08/07 10:12:29;;;;;;;7.50;3.17;;;19.50;99.90;;;;;;5044474;28;20032;-61
2022/08/07 10:15:16;;;;;;;8.48;3.50;;;19.80;99.90;;;;;;5047319;28;20045;-61
2022/08/07 10:18:00;;;;;;;6.38;3.30;;;19.80;99.90;;;;;;5069290;28;20049;-61
2022/08/07 10:21:01;;;;;;;7.53;3.15;;;20.10;99.90;;;;;;5053948;28;20516;-61
2022/08/07 10:23:47;;;;;;;6.90;3.28;;;20.40;99.90;;;;;;5053004;28;20076;-59
2022/08/07 10:26:31;;;;;;;6.47;3.10;;;20.50;99.90;;;;;;5052943;28;20160;-61
2022/08/07 10:29:09;;;;;;;6.43;2.70;;;20.20;99.90;;;;;;5053134;28;20037;-61
2022/08/07 10:31:52;;;;;;;6.32;3.20;;;20.10;99.90;;;;;;5053241;28;20063;-60
2022/08/07 10:34:56;;;;;;;7.00;2.80;;;20.50;99.90;;;;;;5053404;28;20136;-62
2022/08/07 10:37:35;;;;;;;6.15;3.15;;;20.40;99.90;;;;;;5054787;28;20056;-61
2022/08/07 10:40:37;;;;;;;5.53;3.10;;;20.50;99.90;;;;;;5073318;28;20120;-62
2022/08/07 10:43:19;;;;;;;7.72;3.22;;;20.80;99.90;;;;;;5059984;28;20048;-61
2022/08/07 10:45:49;;;;;;;;;;;20.90;99.90;;;;;;5072334;28;20127;-61
2022/08/07 10:48:30;;;;;;;6.53;3.13;;;20.90;99.90;;;;;;5042628;28;20337;-61
2022/08/07 10:51:16;;;;;;;7.28;3.13;;;20.80;99.90;;;;;;5038149;28;20852;-61
2022/08/07 10:53:47;;;;;;;6.88;3.25;;;20.80;99.90;;;;;;5032621;28;20065;-61
2022/08/07 10:56:44;;;;;;;6.25;3.38;;;21.00;99.90;;;;;;5032742;28;20099;-61
2022/08/07 10:59:22;;;;;;;6.50;3.13;;;20.60;99.90;;;;;;5032585;28;20048;-61
2022/08/07 11:02:00;;;;;;;6.18;2.80;;;20.70;99.90;;;;;;5032677;28;20093;-61
2022/08/07 11:04:56;;;;;;;6.57;3.10;;;20.70;99.90;;;;;;5032934;28;20049;-61
2022/08/07 11:07:44;;;;;;;5.60;2.67;;;20.80;99.90;;;;;;5032860;28;20073;-61
2022/08/07 11:10:30;;;;;;;7.78;3.05;;;20.60;99.90;;;;;;5033027;28;20064;-61
2022/08/07 11:13:02;;;;;;;5.70;2.70;;;20.80;99.90;;;;;;5032993;28;20386;-62
2022/08/07 11:15:34;;;;;;;7.10;2.90;;;21.20;99.90;;;;;;5033564;28;20073;-61
2022/08/07 11:18:13;;;;;;;6.78;3.30;;;21.10;99.90;;;;;;5033342;28;20037;-61
2022/08/07 11:20:47;;;;;;;5.97;2.88;;;20.80;99.90;;;;;;5048159;28;20052;-61
2022/08/07 11:23:27;;;;;;;5.43;2.58;;;21.00;99.90;;;;;;5052690;28;20182;-61
2022/08/07 11:26:27;;;;;;;5.20;2.88;;;21.20;99.90;;;;;;5053009;28;20454;-61
2022/08/07 11:29:01;;;;;;;7.38;3.13;;;21.10;99.90;;;;;;5053019;28;20045;-61
2022/08/07 11:31:44;;;;;;;6.30;2.67;;;21.40;99.90;;;;;;5052684;28;20055;-61
2022/08/07 11:34:27;;;;;;;5.50;2.38;;;21.40;99.90;;;;;;5053292;28;20049;-61
2022/08/07 11:37:05;;;;;;;4.97;2.40;;;21.50;99.90;;;;;;5053083;28;20057;-61
2022/08/07 11:39:42;;;;;;;6.88;2.38;;;21.40;99.90;;;;;;5072308;28;20036;-60
2022/08/07 11:42:11;;;;;;;5.15;2.00;;;21.80;99.90;;;;;;5072959;28;20032;-61
2022/08/07 11:44:54;;;;;;;5.95;2.47;;;22.20;99.90;;;;;;5072711;28;20531;-61
2022/08/07 11:47:22;;;;;;;5.55;2.35;;;22.40;99.90;;;;;;5072829;28;20112;-61
2022/08/07 11:50:13;;;;;;;5.53;2.30;;;22.20;99.90;;;;;;5072792;28;20041;-61
2022/08/07 11:52:50;;;;;;;6.03;2.13;;;21.90;99.90;;;;;;5072960;28;20453;-61
2022/08/07 11:55:32;;;;;;;5.05;2.20;;;21.50;99.90;;;;;;5072780;28;20040;-61
2022/08/07 11:58:37;;;;;;;6.70;2.50;;;21.20;99.90;;;;;;5072373;28;20044;-61
2022/08/07 12:01:03;;;;;;;7.20;2.33;;;20.90;99.90;;;;;;5037558;28;20396;-61
2022/08/07 12:04:07;;;;;;;6.05;2.53;;;20.80;99.90;;;;;;5053716;28;20048;-61
2022/08/07 12:06:55;;;;;;;6.63;2.45;;;20.70;99.90;;;;;;5033829;28;20494;-60
2022/08/07 12:09:27;;;;;;;5.45;2.55;;;20.60;99.90;;;;;;5071578;28;20032;-61
2022/08/07 12:12:02;;;;;;;6.95;2.60;;;20.50;99.90;;;;;;5071164;28;20032;-61
2022/08/07 12:14:34;;;;;;;7.47;3.13;;;20.60;99.90;;;;;;5071221;28;20044;-60
2022/08/07 12:17:05;;;;;;;7.07;2.83;;;20.40;99.90;;;;;;5071119;28;20129;-61
2022/08/07 12:19:46;;;;;;;9.00;3.80;;;20.40;99.90;;;;;;5065609;28;20037;-62
2022/08/07 12:22:27;;;;;;;5.80;2.67;;;20.40;99.90;;;;;;5050903;28;20037;-61
2022/08/07 12:27:49;;;;;;;8.90;3.40;;;20.30;99.90;;;;;;5051487;28;20148;-61
2022/08/07 12:30:18;;;;;;;8.07;3.58;;;20.50;99.90;;;;;;5066547;28;20045;-61
2022/08/07 12:33:04;;;;;;;6.32;3.10;;;20.60;99.90;;;;;;5051421;28;20037;-61
2022/08/07 12:35:32;;;;;;;5.88;2.90;;;20.40;99.90;;;;;;5040697;28;20036;-61
2022/08/07 12:37:59;;;;;;;6.07;3.10;;;20.80;99.90;;;;;;5042821;28;20799;-61
2022/08/07 12:40:29;;;;;;;7.00;2.55;;;20.90;99.90;;;;;;5042118;28;20381;-61
2022/08/07 12:43:00;;;;;;;5.47;2.60;;;21.10;99.90;;;;;;5041271;28;20052;-61
2022/08/07 12:45:32;;;;;;;7.00;2.40;;;21.30;99.90;;;;;;5039373;28;20498;-61
2022/08/07 12:48:12;;;;;;;;;;;21.40;99.90;;;;;;5031697;28;20097;-61
2022/08/07 12:50:55;;;;;;;5.93;2.53;;;21.20;99.90;;;;;;5031199;28;19917;-61
2022/08/07 12:53:34;;;;;;;6.20;2.72;;;21.10;99.90;;;;;;5030992;28;20034;-61
2022/08/07 12:56:02;;;;;;;5.40;2.50;;;21.10;99.90;;;;;;5031033;28;20049;-61
2022/08/07 12:58:36;;;;;;;5.30;2.55;;;20.90;99.90;;;;;;5030608;28;20141;-61
2022/08/07 13:01:05;;;;;;;6.50;2.45;;;20.80;99.90;;;;;;5030908;28;20116;-61
2022/08/07 13:03:45;;;;;;;6.03;2.58;;;20.90;99.90;;;;;;5031216;28;20081;-61
2022/08/07 13:06:29;;;;;;;6.22;3.00;;;20.60;99.90;;;;;;5030936;28;20098;-60
2022/08/07 13:09:10;;;;;;;6.03;2.63;;;20.60;99.90;;;;;;5030995;28;20041;-61
2022/08/07 13:11:59;;;;;;;6.63;2.78;;;20.60;99.90;;;;;;5031197;28;20038;-60
2022/08/07 13:14:34;;;;;;;7.80;3.00;;;20.60;99.90;;;;;;5031066;28;20037;-61
2022/08/07 13:17:23;;;;;;;5.70;2.50;;;20.60;99.90;;;;;;5031038;28;20496;-61